sensor_id;sensor_type;location;lat;lon;timestamp;P1;durP1;ratioP1;P2;durP2;ratioP2
41229;SDS011;26964;50.428;19.218;2023-05-19T00:00:17;8.0;;;4.3;;
41229;SDS011;26964;50.428;19.218;2023-05-19T00:01:16;6.1;;;4.0;;
41229;SDS011;26964;50.428;19.218;2023-05-19T00:02:16;7.1;;;3.7;;
41229;SDS011;26964;50.428;19.218;2023-05-19T00:03:16;9.1;;;4.5;;
41229;SDS011;26964;50.428;19.218;2023-05-19T00:07:16;6.7;;;4.2;;
41229;SDS011;26964;50.428;19.218;2023-05-19T00:08:15;7.2;;;4.2;;
41229;SDS011;26964;50.428;19.218;2023-05-19T00:09:16;10.4;;;4.9;;
41229;SDS011;26964;50.428;19.218;2023-05-19T00:10:16;8.3;;;4.6;;
41229;SDS011;26964;50.428;19.218;2023-05-19T00:11:16;10.4;;;5.5;;
41229;SDS011;26964;50.428;19.218;2023-05-19T00:12:16;9.6;;;4.9;;
41229;SDS011;26964;50.428;19.218;2023-05-19T00:13:16;7.5;;;4.5;;
41229;SDS011;26964;50.428;19.218;2023-05-19T00:14:15;8.8;;;5.3;;
41229;SDS011;26964;50.428;19.218;2023-05-19T00:15:16;8.4;;;4.6;;
41229;SDS011;26964;50.428;19.218;2023-05-19T00:16:16;8.5;;;5.1;;
41229;SDS011;26964;50.428;19.218;2023-05-19T00:17:26;9.3;;;5.2;;
41229;SDS011;26964;50.428;19.218;2023-05-19T00:18:15;12.1;;;4.6;;
41229;SDS011;26964;50.428;19.218;2023-05-19T00:19:15;6.8;;;4.3;;
41229;SDS011;26964;50.428;19.218;2023-05-19T00:20:15;9.3;;;4.2;;
41229;SDS011;26964;50.428;19.218;2023-05-19T00:21:15;10.2;;;4.6;;
41229;SDS011;26964;50.428;19.218;2023-05-19T00:22:15;9.2;;;4.3;;
41229;SDS011;26964;50.428;19.218;2023-05-19T00:23:15;7.7;;;3.7;;
41229;SDS011;26964;50.428;19.218;2023-05-19T00:24:15;6.3;;;3.7;;
41229;SDS011;26964;50.428;19.218;2023-05-19T00:25:15;6.8;;;3.9;;
41229;SDS011;26964;50.428;19.218;2023-05-19T00:26:16;6.8;;;4.0;;
41229;SDS011;26964;50.428;19.218;2023-05-19T00:27:15;5.1;;;3.2;;
41229;SDS011;26964;50.428;19.218;2023-05-19T00:28:15;8.9;;;3.8;;
41229;SDS011;26964;50.428;19.218;2023-05-19T00:29:15;8.6;;;4.4;;
41229;SDS011;26964;50.428;19.218;2023-05-19T00:30:15;12.6;;;4.6;;
41229;SDS011;26964;50.428;19.218;2023-05-19T00:31:15;9.8;;;4.4;;
41229;SDS011;26964;50.428;19.218;2023-05-19T00:32:15;7.4;;;4.3;;
41229;SDS011;26964;50.428;19.218;2023-05-19T00:33:15;6.6;;;4.2;;
41229;SDS011;26964;50.428;19.218;2023-05-19T00:34:15;7.3;;;4.3;;
41229;SDS011;26964;50.428;19.218;2023-05-19T00:35:15;8.5;;;4.1;;
41229;SDS011;26964;50.428;19.218;2023-05-19T00:36:15;5.8;;;3.6;;
41229;SDS011;26964;50.428;19.218;2023-05-19T00:37:15;8.2;;;4.0;;
41229;SDS011;26964;50.428;19.218;2023-05-19T00:38:15;5.4;;;3.3;;
41229;SDS011;26964;50.428;19.218;2023-05-19T00:39:15;6.6;;;3.7;;
41229;SDS011;26964;50.428;19.218;2023-05-19T00:40:15;6.7;;;3.9;;
41229;SDS011;26964;50.428;19.218;2023-05-19T00:41:15;6.4;;;4.0;;
41229;SDS011;26964;50.428;19.218;2023-05-19T00:42:16;7.7;;;3.2;;
41229;SDS011;26964;50.428;19.218;2023-05-19T00:43:15;7.1;;;4.5;;
41229;SDS011;26964;50.428;19.218;2023-05-19T00:44:15;6.6;;;3.6;;
41229;SDS011;26964;50.428;19.218;2023-05-19T00:45:15;6.9;;;4.0;;
41229;SDS011;26964;50.428;19.218;2023-05-19T00:46:15;4.9;;;3.1;;
41229;SDS011;26964;50.428;19.218;2023-05-19T00:47:15;7.0;;;4.0;;
41229;SDS011;26964;50.428;19.218;2023-05-19T00:48:15;6.7;;;3.6;;
41229;SDS011;26964;50.428;19.218;2023-05-19T00:49:15;7.0;;;3.9;;
41229;SDS011;26964;50.428;19.218;2023-05-19T00:50:15;7.1;;;3.8;;
41229;SDS011;26964;50.428;19.218;2023-05-19T00:51:15;6.6;;;3.6;;
41229;SDS011;26964;50.428;19.218;2023-05-19T00:52:15;7.3;;;3.6;;
41229;SDS011;26964;50.428;19.218;2023-05-19T00:53:17;8.1;;;3.6;;
41229;SDS011;26964;50.428;19.218;2023-05-19T00:54:15;6.6;;;3.7;;
41229;SDS011;26964;50.428;19.218;2023-05-19T00:55:15;11.9;;;3.9;;
41229;SDS011;26964;50.428;19.218;2023-05-19T00:56:38;6.7;;;3.8;;
41229;SDS011;26964;50.428;19.218;2023-05-19T00:57:15;5.5;;;3.5;;
41229;SDS011;26964;50.428;19.218;2023-05-19T00:58:16;7.2;;;3.5;;
41229;SDS011;26964;50.428;19.218;2023-05-19T00:59:15;6.8;;;3.4;;
41229;SDS011;26964;50.428;19.218;2023-05-19T01:00:15;6.0;;;4.2;;
41229;SDS011;26964;50.428;19.218;2023-05-19T01:01:15;8.0;;;4.3;;
41229;SDS011;26964;50.428;19.218;2023-05-19T01:02:15;7.8;;;4.0;;
41229;SDS011;26964;50.428;19.218;2023-05-19T01:03:15;7.2;;;4.0;;
41229;SDS011;26964;50.428;19.218;2023-05-19T01:04:17;7.4;;;4.4;;
41229;SDS011;26964;50.428;19.218;2023-05-19T01:05:15;7.0;;;4.2;;
41229;SDS011;26964;50.428;19.218;2023-05-19T01:06:15;7.8;;;4.6;;
41229;SDS011;26964;50.428;19.218;2023-05-19T01:07:15;9.6;;;5.3;;
41229;SDS011;26964;50.428;19.218;2023-05-19T01:08:15;9.1;;;5.8;;
41229;SDS011;26964;50.428;19.218;2023-05-19T01:09:15;8.3;;;4.9;;
41229;SDS011;26964;50.428;19.218;2023-05-19T01:10:15;8.0;;;5.2;;
41229;SDS011;26964;50.428;19.218;2023-05-19T01:11:15;9.4;;;4.8;;
41229;SDS011;26964;50.428;19.218;2023-05-19T01:12:15;8.9;;;4.7;;
41229;SDS011;26964;50.428;19.218;2023-05-19T01:13:15;8.1;;;4.6;;
41229;SDS011;26964;50.428;19.218;2023-05-19T01:14:38;7.2;;;4.4;;
41229;SDS011;26964;50.428;19.218;2023-05-19T01:15:15;8.4;;;4.5;;
41229;SDS011;26964;50.428;19.218;2023-05-19T01:16:18;9.3;;;4.4;;
41229;SDS011;26964;50.428;19.218;2023-05-19T01:17:18;7.0;;;4.3;;
41229;SDS011;26964;50.428;19.218;2023-05-19T01:18:17;8.6;;;4.5;;
41229;SDS011;26964;50.428;19.218;2023-05-19T01:20:16;8.9;;;4.8;;
41229;SDS011;26964;50.428;19.218;2023-05-19T01:22:19;7.1;;;4.2;;
41229;SDS011;26964;50.428;19.218;2023-05-19T01:23:19;8.1;;;4.2;;
41229;SDS011;26964;50.428;19.218;2023-05-19T01:31:25;7.5;;;4.4;;
41229;SDS011;26964;50.428;19.218;2023-05-19T01:32:38;6.7;;;3.5;;
41229;SDS011;26964;50.428;19.218;2023-05-19T01:33:15;5.3;;;3.9;;
41229;SDS011;26964;50.428;19.218;2023-05-19T01:34:15;5.8;;;3.6;;
41229;SDS011;26964;50.428;19.218;2023-05-19T01:35:15;7.6;;;4.0;;
41229;SDS011;26964;50.428;19.218;2023-05-19T01:36:15;6.9;;;3.9;;
41229;SDS011;26964;50.428;19.218;2023-05-19T01:37:15;7.5;;;4.1;;
41229;SDS011;26964;50.428;19.218;2023-05-19T01:38:16;6.5;;;4.2;;
41229;SDS011;26964;50.428;19.218;2023-05-19T01:39:15;6.7;;;4.1;;
41229;SDS011;26964;50.428;19.218;2023-05-19T01:40:15;8.3;;;4.3;;
41229;SDS011;26964;50.428;19.218;2023-05-19T01:41:38;5.4;;;3.6;;
41229;SDS011;26964;50.428;19.218;2023-05-19T01:42:15;7.1;;;4.2;;
41229;SDS011;26964;50.428;19.218;2023-05-19T01:43:18;7.7;;;3.8;;
41229;SDS011;26964;50.428;19.218;2023-05-19T01:44:15;5.9;;;3.4;;
41229;SDS011;26964;50.428;19.218;2023-05-19T01:45:15;5.7;;;3.3;;
41229;SDS011;26964;50.428;19.218;2023-05-19T01:46:15;6.4;;;3.8;;
41229;SDS011;26964;50.428;19.218;2023-05-19T01:47:15;5.8;;;3.8;;
41229;SDS011;26964;50.428;19.218;2023-05-19T01:48:15;7.9;;;3.8;;
41229;SDS011;26964;50.428;19.218;2023-05-19T01:49:15;4.8;;;3.6;;
41229;SDS011;26964;50.428;19.218;2023-05-19T01:50:15;5.4;;;3.4;;
41229;SDS011;26964;50.428;19.218;2023-05-19T01:51:15;7.1;;;3.4;;
41229;SDS011;26964;50.428;19.218;2023-05-19T01:52:15;5.8;;;3.1;;
41229;SDS011;26964;50.428;19.218;2023-05-19T01:53:15;6.4;;;3.9;;
41229;SDS011;26964;50.428;19.218;2023-05-19T01:54:15;8.3;;;3.6;;
41229;SDS011;26964;50.428;19.218;2023-05-19T01:55:15;6.0;;;3.7;;
41229;SDS011;26964;50.428;19.218;2023-05-19T01:56:16;7.8;;;3.4;;
41229;SDS011;26964;50.428;19.218;2023-05-19T01:57:18;7.7;;;3.1;;
41229;SDS011;26964;50.428;19.218;2023-05-19T01:58:17;5.0;;;3.4;;
41229;SDS011;26964;50.428;19.218;2023-05-19T02:00:17;6.8;;;3.9;;
41229;SDS011;26964;50.428;19.218;2023-05-19T02:01:18;7.1;;;3.6;;
41229;SDS011;26964;50.428;19.218;2023-05-19T02:02:18;8.6;;;3.6;;
41229;SDS011;26964;50.428;19.218;2023-05-19T02:03:19;6.5;;;3.2;;
41229;SDS011;26964;50.428;19.218;2023-05-19T02:04:16;8.5;;;4.1;;
41229;SDS011;26964;50.428;19.218;2023-05-19T02:05:18;6.9;;;3.6;;
41229;SDS011;26964;50.428;19.218;2023-05-19T02:06:18;6.7;;;3.2;;
41229;SDS011;26964;50.428;19.218;2023-05-19T02:07:16;6.2;;;3.6;;
41229;SDS011;26964;50.428;19.218;2023-05-19T02:08:16;5.4;;;3.7;;
41229;SDS011;26964;50.428;19.218;2023-05-19T02:09:17;4.9;;;3.3;;
41229;SDS011;26964;50.428;19.218;2023-05-19T02:10:18;6.3;;;3.2;;
41229;SDS011;26964;50.428;19.218;2023-05-19T02:11:17;5.6;;;2.9;;
41229;SDS011;26964;50.428;19.218;2023-05-19T02:12:16;5.3;;;3.1;;
41229;SDS011;26964;50.428;19.218;2023-05-19T02:13:15;6.0;;;3.5;;
41229;SDS011;26964;50.428;19.218;2023-05-19T02:14:16;6.5;;;3.6;;
41229;SDS011;26964;50.428;19.218;2023-05-19T02:15:16;8.4;;;3.3;;
41229;SDS011;26964;50.428;19.218;2023-05-19T02:16:15;6.2;;;3.3;;
41229;SDS011;26964;50.428;19.218;2023-05-19T02:17:15;6.1;;;3.4;;
41229;SDS011;26964;50.428;19.218;2023-05-19T02:20:15;7.1;;;4.0;;
41229;SDS011;26964;50.428;19.218;2023-05-19T02:21:15;6.5;;;3.0;;
41229;SDS011;26964;50.428;19.218;2023-05-19T02:22:15;7.6;;;3.9;;
41229;SDS011;26964;50.428;19.218;2023-05-19T02:23:15;6.2;;;3.6;;
41229;SDS011;26964;50.428;19.218;2023-05-19T02:24:15;4.8;;;3.6;;
41229;SDS011;26964;50.428;19.218;2023-05-19T02:25:15;5.5;;;3.2;;
41229;SDS011;26964;50.428;19.218;2023-05-19T02:26:15;5.2;;;3.2;;
41229;SDS011;26964;50.428;19.218;2023-05-19T02:28:15;5.9;;;3.4;;
41229;SDS011;26964;50.428;19.218;2023-05-19T02:29:15;6.0;;;3.7;;
41229;SDS011;26964;50.428;19.218;2023-05-19T02:30:15;9.6;;;3.6;;
41229;SDS011;26964;50.428;19.218;2023-05-19T02:31:15;6.3;;;3.7;;
41229;SDS011;26964;50.428;19.218;2023-05-19T02:32:16;5.2;;;3.5;;
41229;SDS011;26964;50.428;19.218;2023-05-19T02:33:15;5.3;;;3.8;;
41229;SDS011;26964;50.428;19.218;2023-05-19T02:34:15;7.1;;;3.4;;
41229;SDS011;26964;50.428;19.218;2023-05-19T02:35:15;7.0;;;3.8;;
41229;SDS011;26964;50.428;19.218;2023-05-19T02:36:15;6.2;;;3.3;;
41229;SDS011;26964;50.428;19.218;2023-05-19T02:37:15;10.9;;;3.8;;
41229;SDS011;26964;50.428;19.218;2023-05-19T02:38:15;7.8;;;4.4;;
41229;SDS011;26964;50.428;19.218;2023-05-19T02:39:15;7.1;;;3.8;;
41229;SDS011;26964;50.428;19.218;2023-05-19T02:40:16;8.7;;;4.0;;
41229;SDS011;26964;50.428;19.218;2023-05-19T02:41:15;6.4;;;3.7;;
41229;SDS011;26964;50.428;19.218;2023-05-19T02:42:15;6.6;;;3.6;;
41229;SDS011;26964;50.428;19.218;2023-05-19T02:43:15;8.1;;;3.6;;
41229;SDS011;26964;50.428;19.218;2023-05-19T02:44:15;5.7;;;3.6;;
41229;SDS011;26964;50.428;19.218;2023-05-19T02:45:16;9.8;;;3.9;;
41229;SDS011;26964;50.428;19.218;2023-05-19T02:46:15;8.3;;;3.9;;
41229;SDS011;26964;50.428;19.218;2023-05-19T02:47:15;6.5;;;3.9;;
41229;SDS011;26964;50.428;19.218;2023-05-19T02:48:15;6.8;;;3.5;;
41229;SDS011;26964;50.428;19.218;2023-05-19T02:49:15;6.6;;;3.3;;
41229;SDS011;26964;50.428;19.218;2023-05-19T02:50:15;5.9;;;3.5;;
41229;SDS011;26964;50.428;19.218;2023-05-19T02:51:15;7.2;;;3.8;;
41229;SDS011;26964;50.428;19.218;2023-05-19T02:52:15;7.4;;;3.8;;
41229;SDS011;26964;50.428;19.218;2023-05-19T02:53:15;8.1;;;3.4;;
41229;SDS011;26964;50.428;19.218;2023-05-19T02:54:15;7.5;;;3.8;;
41229;SDS011;26964;50.428;19.218;2023-05-19T02:55:15;5.8;;;3.3;;
41229;SDS011;26964;50.428;19.218;2023-05-19T02:56:15;6.5;;;3.6;;
41229;SDS011;26964;50.428;19.218;2023-05-19T02:57:15;5.3;;;3.5;;
41229;SDS011;26964;50.428;19.218;2023-05-19T02:58:15;5.8;;;3.7;;
41229;SDS011;26964;50.428;19.218;2023-05-19T02:59:15;6.7;;;3.8;;
41229;SDS011;26964;50.428;19.218;2023-05-19T03:00:15;7.5;;;4.0;;
41229;SDS011;26964;50.428;19.218;2023-05-19T03:01:15;6.8;;;3.9;;
41229;SDS011;26964;50.428;19.218;2023-05-19T03:02:15;9.0;;;4.2;;
41229;SDS011;26964;50.428;19.218;2023-05-19T03:03:15;6.8;;;3.5;;
41229;SDS011;26964;50.428;19.218;2023-05-19T03:04:15;12.4;;;4.6;;
41229;SDS011;26964;50.428;19.218;2023-05-19T03:05:15;6.4;;;3.8;;
41229;SDS011;26964;50.428;19.218;2023-05-19T03:06:15;6.4;;;3.8;;
41229;SDS011;26964;50.428;19.218;2023-05-19T03:07:26;6.8;;;3.7;;
41229;SDS011;26964;50.428;19.218;2023-05-19T03:08:15;5.5;;;3.5;;
41229;SDS011;26964;50.428;19.218;2023-05-19T03:09:15;6.2;;;3.9;;
41229;SDS011;26964;50.428;19.218;2023-05-19T03:10:15;7.1;;;3.9;;
41229;SDS011;26964;50.428;19.218;2023-05-19T03:11:15;6.7;;;4.1;;
41229;SDS011;26964;50.428;19.218;2023-05-19T03:12:15;7.4;;;4.4;;
41229;SDS011;26964;50.428;19.218;2023-05-19T03:13:15;8.1;;;4.1;;
41229;SDS011;26964;50.428;19.218;2023-05-19T03:14:15;6.4;;;4.1;;
41229;SDS011;26964;50.428;19.218;2023-05-19T03:15:15;6.5;;;4.0;;
41229;SDS011;26964;50.428;19.218;2023-05-19T03:16:15;7.9;;;4.1;;
41229;SDS011;26964;50.428;19.218;2023-05-19T03:17:15;9.1;;;4.4;;
41229;SDS011;26964;50.428;19.218;2023-05-19T03:18:15;8.2;;;4.9;;
41229;SDS011;26964;50.428;19.218;2023-05-19T03:20:15;7.1;;;4.3;;
41229;SDS011;26964;50.428;19.218;2023-05-19T03:21:15;7.3;;;4.0;;
41229;SDS011;26964;50.428;19.218;2023-05-19T03:22:15;6.6;;;4.1;;
41229;SDS011;26964;50.428;19.218;2023-05-19T03:23:15;7.3;;;4.7;;
41229;SDS011;26964;50.428;19.218;2023-05-19T03:24:15;9.0;;;4.5;;
41229;SDS011;26964;50.428;19.218;2023-05-19T03:25:15;8.6;;;4.5;;
41229;SDS011;26964;50.428;19.218;2023-05-19T03:26:15;6.2;;;4.4;;
41229;SDS011;26964;50.428;19.218;2023-05-19T03:27:15;9.2;;;4.6;;
41229;SDS011;26964;50.428;19.218;2023-05-19T03:28:15;7.8;;;4.4;;
41229;SDS011;26964;50.428;19.218;2023-05-19T03:29:15;8.8;;;4.8;;
41229;SDS011;26964;50.428;19.218;2023-05-19T03:30:15;7.1;;;4.6;;
41229;SDS011;26964;50.428;19.218;2023-05-19T03:31:15;6.8;;;4.6;;
41229;SDS011;26964;50.428;19.218;2023-05-19T03:32:15;6.5;;;4.3;;
41229;SDS011;26964;50.428;19.218;2023-05-19T03:33:15;8.0;;;4.5;;
41229;SDS011;26964;50.428;19.218;2023-05-19T03:34:15;7.8;;;4.7;;
41229;SDS011;26964;50.428;19.218;2023-05-19T03:35:43;8.4;;;5.2;;
41229;SDS011;26964;50.428;19.218;2023-05-19T03:36:15;9.1;;;4.5;;
41229;SDS011;26964;50.428;19.218;2023-05-19T03:37:15;6.0;;;4.6;;
41229;SDS011;26964;50.428;19.218;2023-05-19T03:38:15;8.5;;;4.9;;
41229;SDS011;26964;50.428;19.218;2023-05-19T03:39:15;7.5;;;4.8;;
41229;SDS011;26964;50.428;19.218;2023-05-19T03:40:15;7.6;;;4.9;;
41229;SDS011;26964;50.428;19.218;2023-05-19T03:41:15;8.4;;;5.3;;
41229;SDS011;26964;50.428;19.218;2023-05-19T03:42:15;8.6;;;4.7;;
41229;SDS011;26964;50.428;19.218;2023-05-19T03:43:15;8.0;;;5.1;;
41229;SDS011;26964;50.428;19.218;2023-05-19T03:44:15;6.1;;;4.6;;
41229;SDS011;26964;50.428;19.218;2023-05-19T03:45:15;7.2;;;5.0;;
41229;SDS011;26964;50.428;19.218;2023-05-19T03:46:15;9.2;;;5.3;;
41229;SDS011;26964;50.428;19.218;2023-05-19T03:47:15;9.1;;;5.3;;
41229;SDS011;26964;50.428;19.218;2023-05-19T03:48:26;8.1;;;5.5;;
41229;SDS011;26964;50.428;19.218;2023-05-19T03:50:15;9.5;;;5.5;;
41229;SDS011;26964;50.428;19.218;2023-05-19T03:51:15;7.9;;;5.3;;
41229;SDS011;26964;50.428;19.218;2023-05-19T03:52:15;9.9;;;5.6;;
41229;SDS011;26964;50.428;19.218;2023-05-19T03:53:15;8.7;;;5.5;;
41229;SDS011;26964;50.428;19.218;2023-05-19T03:54:15;7.9;;;5.3;;
41229;SDS011;26964;50.428;19.218;2023-05-19T03:55:15;8.3;;;5.4;;
41229;SDS011;26964;50.428;19.218;2023-05-19T03:56:15;7.5;;;5.2;;
41229;SDS011;26964;50.428;19.218;2023-05-19T03:57:15;7.6;;;4.8;;
41229;SDS011;26964;50.428;19.218;2023-05-19T03:58:15;8.4;;;5.6;;
41229;SDS011;26964;50.428;19.218;2023-05-19T03:59:15;8.7;;;5.2;;
41229;SDS011;26964;50.428;19.218;2023-05-19T04:00:15;8.4;;;5.6;;
41229;SDS011;26964;50.428;19.218;2023-05-19T04:01:16;9.2;;;5.3;;
41229;SDS011;26964;50.428;19.218;2023-05-19T04:02:15;9.1;;;5.7;;
41229;SDS011;26964;50.428;19.218;2023-05-19T04:03:15;9.2;;;5.8;;
41229;SDS011;26964;50.428;19.218;2023-05-19T04:04:15;9.3;;;5.5;;
41229;SDS011;26964;50.428;19.218;2023-05-19T04:05:15;9.7;;;6.0;;
41229;SDS011;26964;50.428;19.218;2023-05-19T04:06:15;10.0;;;5.8;;
41229;SDS011;26964;50.428;19.218;2023-05-19T04:07:15;12.5;;;6.1;;
41229;SDS011;26964;50.428;19.218;2023-05-19T04:08:15;9.9;;;5.9;;
41229;SDS011;26964;50.428;19.218;2023-05-19T04:09:15;11.6;;;6.2;;
41229;SDS011;26964;50.428;19.218;2023-05-19T04:10:15;11.3;;;6.7;;
41229;SDS011;26964;50.428;19.218;2023-05-19T04:11:16;9.8;;;6.4;;
41229;SDS011;26964;50.428;19.218;2023-05-19T04:12:15;8.9;;;5.9;;
41229;SDS011;26964;50.428;19.218;2023-05-19T04:13:15;11.5;;;6.0;;
41229;SDS011;26964;50.428;19.218;2023-05-19T04:14:15;10.4;;;6.1;;
41229;SDS011;26964;50.428;19.218;2023-05-19T04:15:15;11.7;;;7.0;;
41229;SDS011;26964;50.428;19.218;2023-05-19T04:16:15;12.0;;;7.2;;
41229;SDS011;26964;50.428;19.218;2023-05-19T04:17:15;11.9;;;6.7;;
41229;SDS011;26964;50.428;19.218;2023-05-19T04:18:15;10.5;;;6.6;;
41229;SDS011;26964;50.428;19.218;2023-05-19T04:19:15;11.6;;;7.1;;
41229;SDS011;26964;50.428;19.218;2023-05-19T04:20:15;15.4;;;8.0;;
41229;SDS011;26964;50.428;19.218;2023-05-19T04:21:15;13.1;;;7.4;;
41229;SDS011;26964;50.428;19.218;2023-05-19T04:22:15;12.8;;;7.5;;
41229;SDS011;26964;50.428;19.218;2023-05-19T04:23:15;11.9;;;7.2;;
41229;SDS011;26964;50.428;19.218;2023-05-19T04:24:15;10.2;;;7.0;;
41229;SDS011;26964;50.428;19.218;2023-05-19T04:25:15;14.6;;;7.3;;
41229;SDS011;26964;50.428;19.218;2023-05-19T04:26:15;11.1;;;7.1;;
41229;SDS011;26964;50.428;19.218;2023-05-19T04:28:15;11.7;;;7.2;;
41229;SDS011;26964;50.428;19.218;2023-05-19T04:29:15;12.3;;;7.9;;
41229;SDS011;26964;50.428;19.218;2023-05-19T04:30:15;12.9;;;7.6;;
41229;SDS011;26964;50.428;19.218;2023-05-19T04:31:15;13.4;;;7.5;;
41229;SDS011;26964;50.428;19.218;2023-05-19T04:32:15;15.2;;;7.6;;
41229;SDS011;26964;50.428;19.218;2023-05-19T04:33:15;12.5;;;7.7;;
41229;SDS011;26964;50.428;19.218;2023-05-19T04:34:15;13.3;;;7.9;;
41229;SDS011;26964;50.428;19.218;2023-05-19T04:35:15;13.5;;;7.8;;
41229;SDS011;26964;50.428;19.218;2023-05-19T04:36:15;15.2;;;7.5;;
41229;SDS011;26964;50.428;19.218;2023-05-19T04:37:15;14.7;;;7.5;;
41229;SDS011;26964;50.428;19.218;2023-05-19T04:38:15;10.2;;;6.8;;
41229;SDS011;26964;50.428;19.218;2023-05-19T04:41:15;12.4;;;7.9;;
41229;SDS011;26964;50.428;19.218;2023-05-19T04:42:15;14.5;;;7.2;;
41229;SDS011;26964;50.428;19.218;2023-05-19T04:43:15;12.7;;;8.4;;
41229;SDS011;26964;50.428;19.218;2023-05-19T04:44:15;13.0;;;8.3;;
41229;SDS011;26964;50.428;19.218;2023-05-19T04:45:16;13.8;;;7.1;;
41229;SDS011;26964;50.428;19.218;2023-05-19T04:46:15;12.2;;;7.4;;
41229;SDS011;26964;50.428;19.218;2023-05-19T04:47:15;13.9;;;8.3;;
41229;SDS011;26964;50.428;19.218;2023-05-19T04:48:15;16.5;;;8.2;;
41229;SDS011;26964;50.428;19.218;2023-05-19T04:49:25;14.6;;;8.6;;
41229;SDS011;26964;50.428;19.218;2023-05-19T04:50:15;14.4;;;7.9;;
41229;SDS011;26964;50.428;19.218;2023-05-19T04:51:15;13.0;;;7.3;;
41229;SDS011;26964;50.428;19.218;2023-05-19T04:52:15;12.7;;;8.0;;
41229;SDS011;26964;50.428;19.218;2023-05-19T04:53:15;10.8;;;7.0;;
41229;SDS011;26964;50.428;19.218;2023-05-19T04:54:15;12.8;;;7.5;;
41229;SDS011;26964;50.428;19.218;2023-05-19T04:55:15;13.2;;;8.0;;
41229;SDS011;26964;50.428;19.218;2023-05-19T04:56:15;14.2;;;8.3;;
41229;SDS011;26964;50.428;19.218;2023-05-19T04:57:15;10.7;;;7.3;;
41229;SDS011;26964;50.428;19.218;2023-05-19T04:58:15;10.1;;;7.3;;
41229;SDS011;26964;50.428;19.218;2023-05-19T04:59:15;10.2;;;7.4;;
41229;SDS011;26964;50.428;19.218;2023-05-19T05:00:16;9.6;;;6.1;;
41229;SDS011;26964;50.428;19.218;2023-05-19T05:01:15;11.2;;;6.9;;
41229;SDS011;26964;50.428;19.218;2023-05-19T05:02:16;12.0;;;7.8;;
41229;SDS011;26964;50.428;19.218;2023-05-19T05:03:15;11.3;;;6.9;;
41229;SDS011;26964;50.428;19.218;2023-05-19T05:04:15;10.3;;;7.0;;
41229;SDS011;26964;50.428;19.218;2023-05-19T05:05:15;14.8;;;7.5;;
41229;SDS011;26964;50.428;19.218;2023-05-19T05:06:15;12.4;;;7.1;;
41229;SDS011;26964;50.428;19.218;2023-05-19T05:07:15;12.8;;;7.1;;
41229;SDS011;26964;50.428;19.218;2023-05-19T05:08:15;11.4;;;7.4;;
41229;SDS011;26964;50.428;19.218;2023-05-19T05:09:16;16.2;;;7.9;;
41229;SDS011;26964;50.428;19.218;2023-05-19T05:10:15;11.1;;;6.9;;
41229;SDS011;26964;50.428;19.218;2023-05-19T05:11:15;11.4;;;7.4;;
41229;SDS011;26964;50.428;19.218;2023-05-19T05:12:16;11.5;;;7.7;;
41229;SDS011;26964;50.428;19.218;2023-05-19T05:13:15;11.0;;;7.4;;
41229;SDS011;26964;50.428;19.218;2023-05-19T05:14:15;14.2;;;7.3;;
41229;SDS011;26964;50.428;19.218;2023-05-19T05:15:15;10.1;;;6.9;;
41229;SDS011;26964;50.428;19.218;2023-05-19T05:16:15;8.4;;;6.9;;
41229;SDS011;26964;50.428;19.218;2023-05-19T05:17:15;11.8;;;6.9;;
41229;SDS011;26964;50.428;19.218;2023-05-19T05:18:15;11.7;;;6.5;;
41229;SDS011;26964;50.428;19.218;2023-05-19T05:19:15;11.9;;;7.0;;
41229;SDS011;26964;50.428;19.218;2023-05-19T05:20:15;12.6;;;7.1;;
41229;SDS011;26964;50.428;19.218;2023-05-19T05:21:15;11.0;;;7.3;;
41229;SDS011;26964;50.428;19.218;2023-05-19T05:22:15;10.3;;;7.2;;
41229;SDS011;26964;50.428;19.218;2023-05-19T05:23:15;13.5;;;8.0;;
41229;SDS011;26964;50.428;19.218;2023-05-19T05:24:15;11.0;;;6.7;;
41229;SDS011;26964;50.428;19.218;2023-05-19T05:25:16;10.4;;;7.0;;
41229;SDS011;26964;50.428;19.218;2023-05-19T05:26:27;10.1;;;6.9;;
41229;SDS011;26964;50.428;19.218;2023-05-19T05:27:15;10.1;;;6.9;;
41229;SDS011;26964;50.428;19.218;2023-05-19T05:28:15;10.4;;;6.9;;
41229;SDS011;26964;50.428;19.218;2023-05-19T05:29:15;10.0;;;7.4;;
41229;SDS011;26964;50.428;19.218;2023-05-19T05:30:15;12.1;;;7.0;;
41229;SDS011;26964;50.428;19.218;2023-05-19T05:31:15;10.6;;;7.0;;
41229;SDS011;26964;50.428;19.218;2023-05-19T05:32:15;13.5;;;7.5;;
41229;SDS011;26964;50.428;19.218;2023-05-19T05:33:15;10.5;;;7.3;;
41229;SDS011;26964;50.428;19.218;2023-05-19T05:34:15;9.3;;;6.6;;
41229;SDS011;26964;50.428;19.218;2023-05-19T05:35:15;11.4;;;7.2;;
41229;SDS011;26964;50.428;19.218;2023-05-19T05:36:15;10.2;;;6.9;;
41229;SDS011;26964;50.428;19.218;2023-05-19T05:37:15;10.8;;;7.4;;
41229;SDS011;26964;50.428;19.218;2023-05-19T05:38:15;10.1;;;7.1;;
41229;SDS011;26964;50.428;19.218;2023-05-19T05:39:15;11.5;;;7.2;;
41229;SDS011;26964;50.428;19.218;2023-05-19T05:40:15;9.8;;;6.9;;
41229;SDS011;26964;50.428;19.218;2023-05-19T05:41:15;11.8;;;7.1;;
41229;SDS011;26964;50.428;19.218;2023-05-19T05:42:15;9.6;;;6.3;;
41229;SDS011;26964;50.428;19.218;2023-05-19T05:43:15;9.2;;;6.6;;
41229;SDS011;26964;50.428;19.218;2023-05-19T05:44:15;12.5;;;7.4;;
41229;SDS011;26964;50.428;19.218;2023-05-19T05:45:15;11.4;;;7.3;;
41229;SDS011;26964;50.428;19.218;2023-05-19T05:46:15;11.0;;;7.1;;
41229;SDS011;26964;50.428;19.218;2023-05-19T05:47:15;10.1;;;6.7;;
41229;SDS011;26964;50.428;19.218;2023-05-19T05:48:15;11.9;;;7.3;;
41229;SDS011;26964;50.428;19.218;2023-05-19T05:49:15;8.5;;;6.7;;
41229;SDS011;26964;50.428;19.218;2023-05-19T05:50:15;10.6;;;6.9;;
41229;SDS011;26964;50.428;19.218;2023-05-19T05:51:15;16.4;;;7.8;;
41229;SDS011;26964;50.428;19.218;2023-05-19T05:52:15;10.3;;;7.5;;
41229;SDS011;26964;50.428;19.218;2023-05-19T05:53:16;13.6;;;7.2;;
41229;SDS011;26964;50.428;19.218;2023-05-19T05:54:15;10.6;;;7.1;;
41229;SDS011;26964;50.428;19.218;2023-05-19T05:55:15;11.2;;;7.2;;
41229;SDS011;26964;50.428;19.218;2023-05-19T05:56:15;9.4;;;7.0;;
41229;SDS011;26964;50.428;19.218;2023-05-19T05:57:15;11.3;;;7.4;;
41229;SDS011;26964;50.428;19.218;2023-05-19T05:58:15;11.5;;;7.2;;
41229;SDS011;26964;50.428;19.218;2023-05-19T05:59:15;8.9;;;6.5;;
41229;SDS011;26964;50.428;19.218;2023-05-19T06:00:15;10.1;;;6.7;;
41229;SDS011;26964;50.428;19.218;2023-05-19T06:01:15;11.4;;;6.7;;
41229;SDS011;26964;50.428;19.218;2023-05-19T06:02:15;11.2;;;7.2;;
41229;SDS011;26964;50.428;19.218;2023-05-19T06:03:15;10.9;;;6.8;;
41229;SDS011;26964;50.428;19.218;2023-05-19T06:04:15;10.6;;;7.6;;
41229;SDS011;26964;50.428;19.218;2023-05-19T06:05:15;11.5;;;7.8;;
41229;SDS011;26964;50.428;19.218;2023-05-19T06:06:15;12.3;;;7.9;;
41229;SDS011;26964;50.428;19.218;2023-05-19T06:07:15;8.5;;;6.9;;
41229;SDS011;26964;50.428;19.218;2023-05-19T06:08:29;11.9;;;7.3;;
41229;SDS011;26964;50.428;19.218;2023-05-19T06:09:15;10.8;;;7.1;;
41229;SDS011;26964;50.428;19.218;2023-05-19T06:10:15;10.6;;;7.2;;
41229;SDS011;26964;50.428;19.218;2023-05-19T06:11:15;12.4;;;8.1;;
41229;SDS011;26964;50.428;19.218;2023-05-19T06:12:15;10.9;;;7.7;;
41229;SDS011;26964;50.428;19.218;2023-05-19T06:13:15;14.0;;;7.7;;
41229;SDS011;26964;50.428;19.218;2023-05-19T06:14:15;10.8;;;7.9;;
41229;SDS011;26964;50.428;19.218;2023-05-19T06:15:15;12.1;;;8.0;;
41229;SDS011;26964;50.428;19.218;2023-05-19T06:16:15;13.8;;;7.6;;
41229;SDS011;26964;50.428;19.218;2023-05-19T06:17:15;11.6;;;7.9;;
41229;SDS011;26964;50.428;19.218;2023-05-19T06:18:15;10.6;;;7.0;;
41229;SDS011;26964;50.428;19.218;2023-05-19T06:19:15;10.8;;;7.4;;
41229;SDS011;26964;50.428;19.218;2023-05-19T06:20:16;13.4;;;7.3;;
41229;SDS011;26964;50.428;19.218;2023-05-19T06:21:15;11.5;;;8.0;;
41229;SDS011;26964;50.428;19.218;2023-05-19T06:22:15;10.5;;;7.6;;
41229;SDS011;26964;50.428;19.218;2023-05-19T06:23:15;10.8;;;7.8;;
41229;SDS011;26964;50.428;19.218;2023-05-19T06:24:15;13.1;;;8.4;;
41229;SDS011;26964;50.428;19.218;2023-05-19T06:25:15;13.4;;;8.2;;